createdAt,value
2023-10-17T00:00:40.504Z,1020.28
2023-10-17T00:02:36.175Z,1020.34
2023-10-17T00:04:37.765Z,1020.34
2023-10-17T00:08:36.896Z,1020.28
2023-10-17T00:10:36.972Z,1020.25
2023-10-17T00:12:36.392Z,1020.25
2023-10-17T00:14:36.001Z,1020.26
2023-10-17T00:16:36.731Z,1020.26
2023-10-17T00:18:36.906Z,1020.17
2023-10-17T00:20:36.101Z,1020.17
2023-10-17T00:22:37.115Z,1020.26
2023-10-17T00:24:36.508Z,1020.26
2023-10-17T00:26:36.806Z,1020.25
2023-10-17T00:28:36.523Z,1020.25
2023-10-17T00:30:36.563Z,1020.19
2023-10-17T00:32:36.874Z,1020.19
2023-10-17T00:34:36.550Z,1020.18
2023-10-17T00:36:36.220Z,1020.18
2023-10-17T00:38:36.711Z,1020.15
2023-10-17T00:40:36.487Z,1020.15
2023-10-17T00:42:37.147Z,1020.07
2023-10-17T00:44:36.565Z,1020.07
2023-10-17T00:46:54.109Z,1020.08
2023-10-17T00:48:37.120Z,1020.08
2023-10-17T00:50:36.572Z,1019.91
2023-10-17T00:52:36.297Z,1019.91
2023-10-17T00:54:37.250Z,1019.91
2023-10-17T00:56:36.347Z,1019.91
2023-10-17T00:58:35.957Z,1019.96
2023-10-17T01:00:42.391Z,1019.96
2023-10-17T01:02:36.774Z,1019.91
2023-10-17T01:04:36.993Z,1019.91
2023-10-17T01:06:37.322Z,1019.92
2023-10-17T01:08:36.103Z,1019.92
2023-10-17T01:10:37.073Z,1019.81
2023-10-17T01:12:36.591Z,1019.81
2023-10-17T01:14:36.210Z,1019.73
2023-10-17T01:16:37.512Z,1019.73
2023-10-17T01:18:36.574Z,1019.66
2023-10-17T01:20:37.177Z,1019.66
2023-10-17T01:22:36.442Z,1019.62
2023-10-17T01:24:36.359Z,1019.62
2023-10-17T01:26:37.341Z,1019.73
2023-10-17T01:28:36.394Z,1019.73
2023-10-17T01:30:36.651Z,1019.56
2023-10-17T01:32:36.832Z,1019.56
2023-10-17T01:34:36.369Z,1019.65
2023-10-17T01:36:37.488Z,1019.65
2023-10-17T01:38:36.576Z,1019.63
2023-10-17T01:40:36.601Z,1019.63
2023-10-17T01:42:37.105Z,1019.61
2023-10-17T01:44:36.568Z,1019.61
2023-10-17T01:46:36.387Z,1019.65
2023-10-17T01:48:37.408Z,1019.64
2023-10-17T01:50:36.615Z,1019.64
2023-10-17T01:52:35.998Z,1019.59
2023-10-17T01:54:36.899Z,1019.59
2023-10-17T01:56:36.243Z,1019.59
2023-10-17T01:58:36.832Z,1019.59
2023-10-17T02:00:41.312Z,1019.49
2023-10-17T02:02:36.205Z,1019.49
2023-10-17T02:04:36.725Z,1019.41
2023-10-17T02:06:36.303Z,1019.41
2023-10-17T02:08:35.968Z,1019.47
2023-10-17T02:10:36.775Z,1019.47
2023-10-17T02:12:36.721Z,1019.5
2023-10-17T02:14:36.027Z,1019.5
2023-10-17T02:16:37.369Z,1019.51
2023-10-17T02:18:37.269Z,1019.51
2023-10-17T02:20:36.164Z,1019.31
2023-10-17T02:22:36.622Z,1019.31
2023-10-17T02:24:36.433Z,1019.4
2023-10-17T02:26:36.701Z,1019.4
2023-10-17T02:28:36.301Z,1019.36
2023-10-17T02:30:36.608Z,1019.36
2023-10-17T02:32:36.922Z,1019.43
2023-10-17T02:34:36.418Z,1019.43
2023-10-17T02:36:36.411Z,1019.42
2023-10-17T02:38:36.901Z,1019.42
2023-10-17T02:40:36.770Z,1019.44
2023-10-17T02:42:36.450Z,1019.44
2023-10-17T02:44:36.995Z,1019.35
2023-10-17T02:46:36.765Z,1019.35
2023-10-17T02:48:37.035Z,1019.3
2023-10-17T02:50:36.184Z,1019.3
2023-10-17T02:52:36.388Z,1019.33
2023-10-17T02:54:36.295Z,1019.33
2023-10-17T02:56:36.994Z,1019.32
2023-10-17T02:58:36.221Z,1019.32
2023-10-17T03:00:44.935Z,1019.33
2023-10-17T03:02:36.566Z,1019.33
2023-10-17T03:04:36.736Z,1019.37
2023-10-17T03:06:36.820Z,1019.37
2023-10-17T03:08:36.516Z,1019.36
2023-10-17T03:10:36.531Z,1019.36
2023-10-17T03:12:36.404Z,1019.35
2023-10-17T03:14:37.214Z,1019.35
2023-10-17T03:16:36.659Z,1019.45
2023-10-17T03:18:37.571Z,1019.45
2023-10-17T03:20:36.848Z,1019.36
2023-10-17T03:22:36.385Z,1019.36
2023-10-17T03:24:36.438Z,1019.32
2023-10-17T03:26:37.283Z,1019.32
2023-10-17T03:28:36.169Z,1019.45
2023-10-17T03:30:36.870Z,1019.45
2023-10-17T03:32:36.452Z,1019.48
2023-10-17T03:34:36.923Z,1019.48
2023-10-17T03:36:37.148Z,1019.5
2023-10-17T03:38:35.961Z,1019.5
2023-10-17T03:40:36.611Z,1019.5
2023-10-17T03:42:36.243Z,1019.5
2023-10-17T03:44:36.765Z,1019.44
2023-10-17T03:46:36.600Z,1019.44
2023-10-17T03:48:37.041Z,1019.4
2023-10-17T03:50:36.452Z,1019.4
2023-10-17T03:52:37.743Z,1019.53
2023-10-17T03:54:36.394Z,1019.53
2023-10-17T03:56:37.097Z,1019.58
2023-10-17T03:58:36.366Z,1019.58
2023-10-17T04:00:39.464Z,1019.65
2023-10-17T04:02:36.689Z,1019.65
2023-10-17T04:04:51.977Z,1019.63
2023-10-17T04:06:36.860Z,1019.63
2023-10-17T04:08:36.619Z,1019.61
2023-10-17T04:10:36.772Z,1019.61
2023-10-17T04:12:36.681Z,1019.61
2023-10-17T04:14:37.315Z,1019.61
2023-10-17T04:16:36.601Z,1019.72
2023-10-17T04:18:36.381Z,1019.72
2023-10-17T04:20:36.975Z,1019.62
2023-10-17T04:22:55.617Z,1019.62
2023-10-17T04:24:37.015Z,1019.57
2023-10-17T04:26:36.379Z,1019.57
2023-10-17T04:28:35.995Z,1019.54
2023-10-17T04:30:37.111Z,1019.54
2023-10-17T04:32:37.154Z,1019.53
2023-10-17T04:34:36.939Z,1019.53
2023-10-17T04:36:36.658Z,1019.58
2023-10-17T04:38:35.965Z,1019.58
2023-10-17T04:40:36.693Z,1019.52
2023-10-17T04:42:36.581Z,1019.52
2023-10-17T04:44:36.778Z,1019.61
2023-10-17T04:46:36.554Z,1019.61
2023-10-17T04:48:37.273Z,1019.52
2023-10-17T04:50:36.997Z,1019.52
2023-10-17T04:52:36.380Z,1019.52
2023-10-17T04:54:36.312Z,1019.52
2023-10-17T04:56:36.772Z,1019.47
2023-10-17T04:58:36.200Z,1019.47
2023-10-17T05:00:39.439Z,1019.34
2023-10-17T05:02:40.484Z,1019.4
2023-10-17T05:04:36.360Z,1019.4
2023-10-17T05:06:36.898Z,1019.32
2023-10-17T05:08:36.189Z,1019.32
2023-10-17T05:10:37.123Z,1019.28
2023-10-17T05:12:36.856Z,1019.28
2023-10-17T05:14:36.371Z,1019.14
2023-10-17T05:16:36.877Z,1019.14
2023-10-17T05:18:37.358Z,1019.07
2023-10-17T05:20:36.251Z,1019.07
2023-10-17T05:22:36.727Z,1019.03
2023-10-17T05:24:36.529Z,1019.03
2023-10-17T05:26:36.037Z,1019.03
2023-10-17T05:28:36.624Z,1019.03
2023-10-17T05:30:36.726Z,1019.08
2023-10-17T05:32:36.221Z,1019.08
2023-10-17T05:34:36.709Z,1018.97
2023-10-17T05:36:36.483Z,1018.97
2023-10-17T05:38:36.018Z,1019.1
2023-10-17T05:40:36.561Z,1019.1
2023-10-17T05:42:36.504Z,1019.04
2023-10-17T05:44:36.941Z,1019.04
2023-10-17T05:46:36.670Z,1019.05
2023-10-17T05:48:36.601Z,1019.05
2023-10-17T05:50:36.893Z,1019.12
2023-10-17T05:52:36.467Z,1019.12
2023-10-17T05:55:29.097Z,1019.03
2023-10-17T05:58:36.402Z,1019.08
2023-10-17T06:00:44.155Z,1019.08
2023-10-17T06:02:36.778Z,1019.06
2023-10-17T06:04:37.534Z,1019.06
2023-10-17T06:06:54.605Z,1019.08
2023-10-17T06:08:36.520Z,1019.08
2023-10-17T06:10:36.663Z,1019.19
2023-10-17T06:12:40.912Z,1019.19
2023-10-17T06:14:36.153Z,1019.12
2023-10-17T06:16:37.237Z,1019.12
2023-10-17T06:18:38.330Z,1019.13
2023-10-17T06:20:36.390Z,1019.13
2023-10-17T06:22:36.121Z,1019.3
2023-10-17T06:24:36.682Z,1019.3
2023-10-17T06:26:36.304Z,1019.32
2023-10-17T06:28:35.954Z,1019.32
2023-10-17T06:30:36.841Z,1019.32
2023-10-17T06:32:36.020Z,1019.32
2023-10-17T06:34:36.666Z,1019.27
2023-10-17T06:36:36.267Z,1019.27
2023-10-17T06:38:37.583Z,1019.34
2023-10-17T06:40:36.542Z,1019.34
2023-10-17T06:42:36.951Z,1019.26
2023-10-17T06:44:36.503Z,1019.26
2023-10-17T06:46:36.307Z,1019.31
2023-10-17T06:48:37.223Z,1019.31
2023-10-17T06:50:36.222Z,1019.41
2023-10-17T06:52:36.610Z,1019.41
2023-10-17T06:54:36.422Z,1019.34
2023-10-17T06:56:39.110Z,1019.34
2023-10-17T06:58:36.729Z,1019.33
2023-10-17T07:00:41.623Z,1019.33
2023-10-17T07:02:37.233Z,1019.41
2023-10-17T07:04:37.169Z,1019.41
2023-10-17T07:06:38.592Z,1019.38
2023-10-17T07:08:36.463Z,1019.38
2023-10-17T07:10:36.033Z,1019.3
2023-10-17T07:12:36.785Z,1019.3
2023-10-17T07:14:36.379Z,1019.26
2023-10-17T07:16:36.374Z,1019.26
2023-10-17T07:18:37.166Z,1019.3
2023-10-17T07:20:39.495Z,1019.3
2023-10-17T07:22:35.873Z,1019.25
2023-10-17T07:24:37.228Z,1019.25
2023-10-17T07:26:35.988Z,1019.3
2023-10-17T07:28:36.661Z,1019.3
2023-10-17T07:30:36.865Z,1019.11
2023-10-17T07:32:36.958Z,1019.11
2023-10-17T07:34:36.440Z,1019.18
2023-10-17T07:36:40.325Z,1019.18
2023-10-17T07:38:36.373Z,1019.16
2023-10-17T07:40:36.271Z,1019.16
2023-10-17T07:42:36.823Z,1019.2
2023-10-17T07:44:36.455Z,1019.2
2023-10-17T07:46:36.948Z,1019.23
2023-10-17T07:48:40.035Z,1019.23
2023-10-17T07:50:36.196Z,1019.24
2023-10-17T07:52:36.902Z,1019.24
2023-10-17T07:54:36.500Z,1019.31
2023-10-17T07:56:35.949Z,1019.31
2023-10-17T07:58:36.419Z,1019.17
2023-10-17T08:00:42.899Z,1019.17
2023-10-17T08:02:36.642Z,1019.25
2023-10-17T08:04:37.029Z,1019.25
2023-10-17T08:06:36.815Z,1019.27
2023-10-17T08:08:36.040Z,1019.27
2023-10-17T08:12:36.573Z,1019.2
2023-10-17T08:14:40.178Z,1019.27
2023-10-17T08:16:36.405Z,1019.27
2023-10-17T08:18:37.354Z,1019.31
2023-10-17T08:20:36.730Z,1019.31
2023-10-17T08:22:36.411Z,1019.34
2023-10-17T08:24:36.824Z,1019.34
2023-10-17T08:26:36.481Z,1019.36
2023-10-17T08:28:37.261Z,1019.33
2023-10-17T08:30:56.354Z,1019.33
2023-10-17T08:32:36.192Z,1019.37
2023-10-17T08:34:36.715Z,1019.37
2023-10-17T08:36:36.529Z,1019.37
2023-10-17T08:38:36.871Z,1019.37
2023-10-17T08:40:38.423Z,1019.37
2023-10-17T08:42:37.152Z,1019.37
2023-10-17T08:44:36.389Z,1019.45
2023-10-17T08:46:36.285Z,1019.45
2023-10-17T08:48:37.281Z,1019.44
2023-10-17T08:50:36.533Z,1019.44
2023-10-17T08:54:36.484Z,1019.48
2023-10-17T08:56:36.267Z,1019.44
2023-10-17T08:58:36.871Z,1019.44
2023-10-17T09:00:39.526Z,1019.42
2023-10-17T09:02:36.051Z,1019.42
2023-10-17T09:04:36.870Z,1019.39
2023-10-17T09:06:36.693Z,1019.39
2023-10-17T09:08:36.204Z,1019.41
2023-10-17T09:10:36.894Z,1019.41
2023-10-17T09:12:36.454Z,1019.42
2023-10-17T09:14:35.958Z,1019.42
2023-10-17T09:16:36.710Z,1019.43
2023-10-17T09:18:36.253Z,1019.43
2023-10-17T09:20:36.785Z,1019.23
2023-10-17T09:22:36.502Z,1019.23
2023-10-17T09:24:36.162Z,1019.3
2023-10-17T09:26:36.992Z,1019.3
2023-10-17T09:28:36.394Z,1019.3
2023-10-17T09:30:40.320Z,1019.3
2023-10-17T09:32:36.435Z,1019.37
2023-10-17T09:34:36.986Z,1019.37
2023-10-17T09:36:36.955Z,1019.4
2023-10-17T09:38:36.053Z,1019.4
2023-10-17T09:42:36.242Z,1019.21
2023-10-17T09:48:38.188Z,1019.23
2023-10-17T09:52:36.804Z,1019.13
2023-10-17T09:54:36.626Z,1019.13
2023-10-17T09:56:36.798Z,1019.08
2023-10-17T09:58:37.424Z,1019.08
2023-10-17T10:00:39.342Z,1019.09
2023-10-17T10:04:36.749Z,1019.08
2023-10-17T10:06:36.752Z,1019.08
2023-10-17T10:08:36.173Z,1019.01
2023-10-17T10:10:36.802Z,1019.01
2023-10-17T10:12:36.212Z,1018.81
2023-10-17T10:14:36.717Z,1018.81
2023-10-17T10:16:36.202Z,1019.04
2023-10-17T10:18:36.992Z,1019.04
2023-10-17T10:20:36.297Z,1019.21
2023-10-17T10:22:37.505Z,1019.21
2023-10-17T10:26:35.912Z,1019.33
2023-10-17T10:28:36.466Z,1019.33
2023-10-17T10:30:36.251Z,1019.33
2023-10-17T10:32:37.014Z,1019.16
2023-10-17T10:34:36.214Z,1019.16
2023-10-17T10:36:36.761Z,1019.07
2023-10-17T10:38:36.310Z,1019.07
2023-10-17T10:40:37.899Z,1018.99
2023-10-17T10:42:36.708Z,1018.99
2023-10-17T10:44:35.890Z,1018.86
2023-10-17T10:46:37.432Z,1018.86
2023-10-17T10:48:36.730Z,1018.78
2023-10-17T10:50:36.867Z,1018.78
2023-10-17T10:52:36.575Z,1018.81
2023-10-17T10:54:36.269Z,1018.81
2023-10-17T10:56:36.913Z,1018.73
2023-10-17T10:58:38.407Z,1018.73
2023-10-17T11:00:37.242Z,1018.72
2023-10-17T11:02:36.804Z,1018.72
2023-10-17T11:04:36.874Z,1018.6
2023-10-17T11:06:37.459Z,1018.6
2023-10-17T11:08:36.385Z,1018.63
2023-10-17T11:10:36.313Z,1018.63
2023-10-17T11:12:36.615Z,1018.62
2023-10-17T11:16:36.884Z,1018.65
2023-10-17T11:18:36.911Z,1018.65
2023-10-17T11:20:36.339Z,1018.65
2023-10-17T11:22:36.717Z,1018.65
2023-10-17T11:24:36.488Z,1018.44
2023-10-17T11:26:47.598Z,1018.44
2023-10-17T11:28:36.669Z,1018.32
2023-10-17T11:30:37.318Z,1018.32
2023-10-17T11:32:36.750Z,1018.34
2023-10-17T11:34:36.389Z,1018.34
2023-10-17T11:36:37.444Z,1018.28
2023-10-17T11:38:45.350Z,1018.32
2023-10-17T11:40:36.394Z,1018.32
2023-10-17T11:42:36.278Z,1018.32
2023-10-17T11:44:37.274Z,1018.28
2023-10-17T11:48:36.302Z,1018.23
2023-10-17T11:50:36.837Z,1018.14
2023-10-17T11:52:36.149Z,1018.14
2023-10-17T11:54:56.076Z,1018.13
2023-10-17T11:56:36.588Z,1018.13
2023-10-17T11:58:35.977Z,1018.09
2023-10-17T12:00:37.831Z,1018.09
2023-10-17T12:02:36.366Z,1017.96
2023-10-17T12:04:37.455Z,1017.96
2023-10-17T12:06:36.323Z,1018.01
2023-10-17T12:08:36.753Z,1018.01
2023-10-17T12:10:38.328Z,1017.78
2023-10-17T12:12:37.086Z,1017.78
2023-10-17T12:14:36.597Z,1017.7
2023-10-17T12:16:36.390Z,1017.7
2023-10-17T12:18:36.735Z,1017.6
2023-10-17T12:20:36.522Z,1017.6
2023-10-17T12:22:36.818Z,1017.58
2023-10-17T12:24:36.954Z,1017.58
2023-10-17T12:26:35.987Z,1017.53
2023-10-17T12:28:36.461Z,1017.53
2023-10-17T12:30:36.572Z,1017.57
2023-10-17T12:32:36.849Z,1017.57
2023-10-17T12:34:36.367Z,1017.61
2023-10-17T12:36:37.304Z,1017.61
2023-10-17T12:38:36.318Z,1017.51
2023-10-17T12:40:37.062Z,1017.51
2023-10-17T12:42:37.058Z,1017.4
2023-10-17T12:44:36.369Z,1017.4
2023-10-17T12:46:37.169Z,1017.31
2023-10-17T12:48:38.733Z,1017.31
2023-10-17T12:52:37.233Z,1017.17
2023-10-17T12:54:36.084Z,1017.2
2023-10-17T12:56:36.458Z,1017.2
2023-10-17T12:58:36.173Z,1017.06
2023-10-17T13:00:39.479Z,1017.06
2023-10-17T13:02:36.805Z,1016.86
2023-10-17T13:04:37.255Z,1016.86
2023-10-17T13:06:36.894Z,1017.07
2023-10-17T13:08:36.345Z,1017.07
2023-10-17T13:10:36.464Z,1016.99
2023-10-17T13:12:37.052Z,1016.99
2023-10-17T13:14:36.317Z,1016.93
2023-10-17T13:16:36.712Z,1016.93
2023-10-17T13:18:37.095Z,1017.04
2023-10-17T13:21:15.066Z,1017.04
2023-10-17T13:24:36.325Z,1016.85
2023-10-17T13:26:36.683Z,1016.74
2023-10-17T13:28:36.383Z,1016.74
2023-10-17T13:30:37.298Z,1016.79
2023-10-17T13:32:36.357Z,1016.79
2023-10-17T13:34:40.555Z,1016.65
2023-10-17T13:36:36.564Z,1016.65
2023-10-17T13:38:36.173Z,1016.73
2023-10-17T13:40:36.940Z,1016.73
2023-10-17T13:42:36.473Z,1016.65
2023-10-17T13:44:35.962Z,1016.65
2023-10-17T13:46:36.979Z,1016.71
2023-10-17T13:48:37.161Z,1016.71
2023-10-17T13:50:36.611Z,1016.49
2023-10-17T13:52:36.117Z,1016.49
2023-10-17T13:54:36.647Z,1016.66
2023-10-17T13:56:36.219Z,1016.66
2023-10-17T13:58:37.173Z,1016.58
2023-10-17T14:00:42.042Z,1016.58
2023-10-17T14:02:38.629Z,1016.65
2023-10-17T14:04:36.004Z,1016.65
2023-10-17T14:06:36.848Z,1016.57
2023-10-17T14:08:36.556Z,1016.57
2023-10-17T14:10:36.232Z,1016.62
2023-10-17T14:12:36.855Z,1016.62
2023-10-17T14:14:36.400Z,1016.57
2023-10-17T14:16:37.659Z,1016.57
2023-10-17T14:18:36.718Z,1016.54
2023-10-17T14:20:36.072Z,1016.54
2023-10-17T14:22:36.469Z,1016.41
2023-10-17T14:24:36.130Z,1016.41
2023-10-17T14:26:36.699Z,1016.34
2023-10-17T14:28:36.229Z,1016.34
2023-10-17T14:30:37.061Z,1016.31
2023-10-17T14:32:36.672Z,1016.31
2023-10-17T14:34:36.322Z,1016.38
2023-10-17T14:36:36.288Z,1016.38
2023-10-17T14:38:36.864Z,1016.38
2023-10-17T14:40:36.991Z,1016.38
2023-10-17T14:42:36.364Z,1016.27
2023-10-17T14:44:36.801Z,1016.27
2023-10-17T14:46:36.862Z,1016.19
2023-10-17T14:48:36.160Z,1016.19
2023-10-17T14:50:36.613Z,1016.21
2023-10-17T14:52:36.058Z,1016.21
2023-10-17T14:56:36.090Z,1016.22
2023-10-17T14:58:36.572Z,1016.12
2023-10-17T15:00:42.303Z,1016.12
2023-10-17T15:02:36.239Z,1016.11
2023-10-17T15:04:37.419Z,1016.11
2023-10-17T15:06:36.173Z,1016.1
2023-10-17T15:08:36.619Z,1016.1
2023-10-17T15:10:36.842Z,1016.18
2023-10-17T15:12:36.971Z,1016.02
2023-10-17T15:14:36.316Z,1016.02
2023-10-17T15:16:39.940Z,1016.1
2023-10-17T15:18:36.439Z,1016.1
2023-10-17T15:20:36.301Z,1016.1
2023-10-17T15:22:36.794Z,1016.1
2023-10-17T15:24:37.457Z,1015.98
2023-10-17T15:26:36.873Z,1015.98
2023-10-17T15:28:36.341Z,1015.94
2023-10-17T15:30:57.603Z,1015.94
2023-10-17T15:32:36.710Z,1015.92
2023-10-17T15:34:36.078Z,1015.92
2023-10-17T15:36:40.292Z,1015.84
2023-10-17T15:38:36.217Z,1015.84
2023-10-17T15:40:36.315Z,1015.82
2023-10-17T15:42:36.731Z,1015.82
2023-10-17T15:44:36.407Z,1015.81
2023-10-17T15:46:36.392Z,1015.81
2023-10-17T15:48:37.202Z,1015.83
2023-10-17T15:50:36.936Z,1015.83
2023-10-17T15:52:36.203Z,1015.75
2023-10-17T15:54:36.642Z,1015.75
2023-10-17T15:56:36.206Z,1015.67
2023-10-17T15:58:36.984Z,1015.67
2023-10-17T16:00:38.879Z,1015.7
2023-10-17T16:02:36.229Z,1015.7
2023-10-17T16:04:37.474Z,1015.62
2023-10-17T16:06:36.325Z,1015.62
2023-10-17T16:08:36.186Z,1015.67
2023-10-17T16:10:36.842Z,1015.67
2023-10-17T16:12:36.305Z,1015.73
2023-10-17T16:14:36.769Z,1015.73
2023-10-17T16:16:37.436Z,1015.67
2023-10-17T16:18:37.378Z,1015.67
2023-10-17T16:20:36.734Z,1015.73
2023-10-17T16:22:36.160Z,1015.73
2023-10-17T16:24:36.699Z,1015.72
2023-10-17T16:26:36.263Z,1015.72
2023-10-17T16:28:36.899Z,1015.75
2023-10-17T16:30:36.844Z,1015.75
2023-10-17T16:32:36.667Z,1015.64
2023-10-17T16:34:36.077Z,1015.64
2023-10-17T16:36:36.802Z,1015.69
2023-10-17T16:38:36.242Z,1015.69
2023-10-17T16:40:37.045Z,1015.78
2023-10-17T16:42:36.577Z,1015.78
2023-10-17T16:44:36.109Z,1015.78
2023-10-17T16:46:37.253Z,1015.78
2023-10-17T16:48:36.550Z,1015.86
2023-10-17T16:50:36.472Z,1015.86
2023-10-17T16:52:37.077Z,1015.81
2023-10-17T16:54:36.690Z,1015.81
2023-10-17T16:56:35.958Z,1015.95
2023-10-17T16:58:36.665Z,1015.95
2023-10-17T17:00:44.736Z,1016
2023-10-17T17:02:37.234Z,1016
2023-10-17T17:04:36.592Z,1016.11
2023-10-17T17:06:36.197Z,1016.11
2023-10-17T17:08:36.629Z,1016.06
2023-10-17T17:10:36.430Z,1016.06
2023-10-17T17:12:36.754Z,1016.1
2023-10-17T17:14:36.485Z,1016.1
2023-10-17T17:16:36.479Z,1016.14
2023-10-17T17:19:15.674Z,1016.14
2023-10-17T17:20:36.511Z,1016.26
2023-10-17T17:22:36.502Z,1016.26
2023-10-17T17:24:36.223Z,1016.24
2023-10-17T17:26:36.842Z,1016.24
2023-10-17T17:30:37.027Z,1016.1
2023-10-17T17:32:36.612Z,1016.05
2023-10-17T17:34:36.152Z,1016.05
2023-10-17T17:36:36.460Z,1015.95
2023-10-17T17:38:36.895Z,1015.95
2023-10-17T17:40:36.888Z,1015.98
2023-10-17T17:42:36.826Z,1015.98
2023-10-17T17:44:36.615Z,1015.96
2023-10-17T17:46:36.941Z,1015.96
2023-10-17T17:48:37.121Z,1015.95
2023-10-17T17:50:36.733Z,1015.95
2023-10-17T17:52:36.265Z,1015.93
2023-10-17T17:54:36.974Z,1015.93
2023-10-17T17:56:36.356Z,1015.91
2023-10-17T17:58:36.782Z,1015.91
2023-10-17T18:00:40.263Z,1015.69
2023-10-17T18:02:36.491Z,1015.69
2023-10-17T18:05:02.534Z,1015.75
2023-10-17T18:08:36.643Z,1015.85
2023-10-17T18:10:36.420Z,1015.85
2023-10-17T18:12:36.951Z,1015.81
2023-10-17T18:14:36.433Z,1015.81
2023-10-17T18:16:37.232Z,1015.76
2023-10-17T18:18:36.643Z,1015.76
2023-10-17T18:20:36.049Z,1015.69
2023-10-17T18:22:36.675Z,1015.69
2023-10-17T18:24:36.383Z,1015.75
2023-10-17T18:26:39.229Z,1015.75
2023-10-17T18:28:36.218Z,1015.68
2023-10-17T18:30:37.218Z,1015.68
2023-10-17T18:32:36.626Z,1015.55
2023-10-17T18:34:38.472Z,1015.44
2023-10-17T18:36:36.552Z,1015.44
2023-10-17T18:38:36.029Z,1015.55
2023-10-17T18:40:36.630Z,1015.55
2023-10-17T18:42:36.148Z,1015.44
2023-10-17T18:44:36.507Z,1015.44
2023-10-17T18:46:36.552Z,1015.41
2023-10-17T18:48:36.116Z,1015.41
2023-10-17T18:50:36.658Z,1015.35
2023-10-17T18:52:36.301Z,1015.35
2023-10-17T18:54:36.828Z,1015.45
2023-10-17T18:56:36.416Z,1015.45
2023-10-17T18:58:36.111Z,1015.36
2023-10-17T19:00:39.533Z,1015.36
2023-10-17T19:02:36.462Z,1015.26
2023-10-17T19:04:35.911Z,1015.26
2023-10-17T19:06:37.046Z,1015.29
2023-10-17T19:08:36.085Z,1015.29
2023-10-17T19:10:36.900Z,1015.49
2023-10-17T19:12:51.872Z,1015.49
2023-10-17T19:14:36.612Z,1015.51
2023-10-17T19:16:38.489Z,1015.51
2023-10-17T19:18:36.729Z,1015.43
2023-10-17T19:20:36.584Z,1015.43
2023-10-17T19:22:37.016Z,1015.26
2023-10-17T19:24:36.476Z,1015.26
2023-10-17T19:26:36.228Z,1015.1
2023-10-17T19:28:36.702Z,1015.1
2023-10-17T19:30:36.542Z,1015.1
2023-10-17T19:32:36.043Z,1015.1
2023-10-17T19:34:36.631Z,1015.08
2023-10-17T19:38:37.094Z,1015.18
2023-10-17T19:40:38.919Z,1015.18
2023-10-17T19:42:35.924Z,1015.22
2023-10-17T19:44:36.723Z,1015.22
2023-10-17T19:46:36.753Z,1015.12
2023-10-17T19:48:37.034Z,1015.12
2023-10-17T19:50:36.701Z,1015.03
2023-10-17T19:52:36.429Z,1015.03
2023-10-17T19:54:36.185Z,1014.84
2023-10-17T19:56:36.792Z,1014.84
2023-10-17T19:58:36.465Z,1014.89
2023-10-17T20:00:41.682Z,1014.89
2023-10-17T20:02:36.788Z,1014.89
2023-10-17T20:04:36.766Z,1014.89
2023-10-17T20:06:36.839Z,1014.89
2023-10-17T20:08:36.327Z,1014.89
2023-10-17T20:10:37.542Z,1014.75
2023-10-17T20:14:36.394Z,1014.82
2023-10-17T20:16:37.164Z,1014.82
2023-10-17T20:18:36.560Z,1014.81
2023-10-17T20:20:36.332Z,1014.81
2023-10-17T20:22:36.750Z,1014.72
2023-10-17T20:24:36.558Z,1014.72
2023-10-17T20:26:36.129Z,1014.72
2023-10-17T20:28:37.881Z,1014.72
2023-10-17T20:30:37.252Z,1014.72
2023-10-17T20:34:36.860Z,1014.49
2023-10-17T20:36:36.297Z,1014.49
2023-10-17T20:38:36.950Z,1014.54
2023-10-17T20:40:36.724Z,1014.54
2023-10-17T20:42:36.503Z,1014.4
2023-10-17T20:44:36.635Z,1014.4
2023-10-17T20:46:43.160Z,1014.35
2023-10-17T20:48:36.967Z,1014.35
2023-10-17T20:50:36.485Z,1014.38
2023-10-17T20:52:39.688Z,1014.38
2023-10-17T20:54:36.670Z,1014.3
2023-10-17T20:56:54.258Z,1014.3
2023-10-17T20:58:36.705Z,1014.24
2023-10-17T21:00:39.265Z,1014.24
2023-10-17T21:02:35.927Z,1014.31
2023-10-17T21:04:36.900Z,1014.31
2023-10-17T21:06:36.083Z,1014.19
2023-10-17T21:08:36.582Z,1014.19
2023-10-17T21:10:36.732Z,1014.2
2023-10-17T21:12:36.758Z,1014.2
2023-10-17T21:14:36.668Z,1014.26
2023-10-17T21:16:36.542Z,1014.26
2023-10-17T21:18:36.742Z,1014.18
2023-10-17T21:20:36.759Z,1014.18
2023-10-17T21:22:36.434Z,1014.09
2023-10-17T21:24:36.837Z,1014.09
2023-10-17T21:26:36.253Z,1014.05
2023-10-17T21:28:36.851Z,1014.05
2023-10-17T21:30:36.667Z,1013.95
2023-10-17T21:32:36.400Z,1013.95
2023-10-17T21:34:36.870Z,1013.87
2023-10-17T21:36:36.236Z,1013.87
2023-10-17T21:38:38.488Z,1013.86
2023-10-17T21:40:36.764Z,1013.86
2023-10-17T21:42:36.067Z,1013.91
2023-10-17T21:44:36.661Z,1013.91
2023-10-17T21:46:36.757Z,1013.81
2023-10-17T21:48:36.773Z,1013.81
2023-10-17T21:50:36.578Z,1013.74
2023-10-17T21:52:36.874Z,1013.74
2023-10-17T21:54:36.394Z,1013.7
2023-10-17T21:56:36.033Z,1013.7
2023-10-17T21:58:36.638Z,1013.75
2023-10-17T22:00:36.875Z,1013.77
2023-10-17T22:02:37.343Z,1013.77
2023-10-17T22:04:36.425Z,1013.64
2023-10-17T22:06:36.779Z,1013.64
2023-10-17T22:08:36.373Z,1013.58
2023-10-17T22:10:37.109Z,1013.58
2023-10-17T22:12:36.615Z,1013.57
2023-10-17T22:14:36.227Z,1013.57
2023-10-17T22:16:37.072Z,1013.55
2023-10-17T22:18:36.117Z,1013.55
2023-10-17T22:20:36.765Z,1013.61
2023-10-17T22:22:36.099Z,1013.61
2023-10-17T22:24:52.608Z,1013.54
2023-10-17T22:26:38.166Z,1013.54
2023-10-17T22:28:36.787Z,1013.52
2023-10-17T22:30:36.595Z,1013.52
2023-10-17T22:32:40.767Z,1013.56
2023-10-17T22:34:36.184Z,1013.56
2023-10-17T22:36:36.156Z,1013.38
2023-10-17T22:38:36.596Z,1013.38
2023-10-17T22:40:36.389Z,1013.28
2023-10-17T22:42:38.561Z,1013.28
2023-10-17T22:44:36.025Z,1013.23
2023-10-17T22:46:36.920Z,1013.23
2023-10-17T22:48:36.130Z,1013.29
2023-10-17T22:50:37.214Z,1013.29
2023-10-17T22:52:36.229Z,1013.21
2023-10-17T22:54:36.992Z,1013.21
2023-10-17T22:56:36.599Z,1013.09
2023-10-17T22:58:36.148Z,1013.09
2023-10-17T23:00:43.755Z,1012.98
2023-10-17T23:02:37.243Z,1012.98
2023-10-17T23:04:36.186Z,1012.92
2023-10-17T23:06:36.558Z,1012.92
2023-10-17T23:08:36.467Z,1012.91
2023-10-17T23:10:37.035Z,1012.91
2023-10-17T23:12:36.506Z,1012.94
2023-10-17T23:14:35.981Z,1012.94
2023-10-17T23:16:36.391Z,1012.97
2023-10-17T23:18:36.571Z,1012.97
2023-10-17T23:20:37.063Z,1012.88
2023-10-17T23:22:36.475Z,1012.88
2023-10-17T23:24:36.229Z,1012.82
2023-10-17T23:26:36.692Z,1012.82
2023-10-17T23:28:36.314Z,1012.73
2023-10-17T23:30:37.091Z,1012.73
2023-10-17T23:32:36.402Z,1012.64
2023-10-17T23:34:36.117Z,1012.64
2023-10-17T23:36:36.896Z,1012.69
2023-10-17T23:38:36.190Z,1012.69
2023-10-17T23:40:37.018Z,1012.53
2023-10-17T23:42:36.656Z,1012.53
2023-10-17T23:44:36.183Z,1012.47
2023-10-17T23:46:37.373Z,1012.47
2023-10-17T23:48:36.618Z,1012.52
2023-10-17T23:50:36.299Z,1012.52
2023-10-17T23:52:37.101Z,1012.48
2023-10-17T23:54:36.535Z,1012.48
2023-10-17T23:56:36.499Z,1012.42
2023-10-17T23:58:36.876Z,1012.42
